x

Frying Pan Shoals, Nc Buoy (41013) Weather Station

2:20pm - Wed 22nd Nov 2017 All times are EST. -5 hours from GMT.

  • Wind
    11mph, 13mph gusts
  • Sea Temp 73°f
  • Air Temp 65°f
  • Sea Pressure 1013.6mb
  • Frying Pan Shoals, Nc Buoy
  • Frying Pan Shoals, Nc Buoy

More Historic Weather Station data

Upgrade to MSW Pro to gain access to the past 30 days of data for over 8000 Wavebouys and Weather Stations around the globe.

Join

Comparision Forecast

View Surf forecast
   
Wed 11/22 2:20pm  -   -   -  11 13 mph 1013.6mb 73f 65f
2:10pm  -   -   -  11 13 mph 1013.6mb 73f 64f
2:00pm  -   -   -  11 13 mph 1013.6mb 73f 64f
1:50pm 4.5ft 8s 6s 11 16 mph 1013.5mb 73f 64f
1:40pm 4.5ft  -  6s 11 16 mph 1013.4mb 73f 64f
1:30pm  -   -   -  11 16 mph 1013.5mb 73f 64f
1:20pm  -   -   -  13 18 mph 1013.6mb 73f 64f
1:10pm  -   -   -  13 18 mph 1013.9mb 73f 64f
1:00pm  -   -   -  13 18 mph 1013.9mb 73f 64f
12:50pm 4ft 8s 5s 16 18 mph 1013.9mb 73f 64f
12:40pm  -   -   -  16 22 mph 1014mb 73f 64f
12:30pm  -   -   -  16 20 mph 1013.9mb 73f 64f
12:20pm  -   -   -  16 20 mph 1013.9mb 73f 63f
12:10pm  -   -   -  16 22 mph 1014mb 73f 63f
12:00pm  -   -   -  16 22 mph 1014.1mb 73f 63f
11:50am 4.5ft 8s 5s 18 22 mph 1014.3mb 73f 63f
11:40am 4.5ft  -  5s 18 25 mph 1014.5mb 73f 64f
11:30am  -   -   -  18 25 mph 1014.7mb 73f 63f
11:20am  -   -   -  16 22 mph 1014.7mb 73f 63f
11:10am  -   -   -  18 22 mph 1015mb 73f 64f
11:00am  -   -   -  20 27 mph 1015mb 73f 64f
10:50am 4.5ft 8s 6s 18 25 mph 1014.9mb 73f 65f
10:40am  -   -   -  13 20 mph 1015.1mb 73f 65f
10:30am  -   -   -  7 13 mph 1015.1mb 73f 65f
10:20am  -   -   -  7 11 mph 1015mb 73f 64f
10:10am  -   -   -  7 11 mph 1015mb 73f 64f
10:00am  -   -   -  9 11 mph 1014.9mb 73f 64f
9:50am 4.5ft 8s 6s 9 13 mph 1014.8mb 73f 64f
9:40am 4.5ft  -  6s 11 16 mph 1014.7mb 73f 64f
9:30am  -   -   -  11 16 mph 1014.7mb 73f 64f
9:20am  -   -   -  13 18 mph 1014.7mb 73f 64f
9:10am  -   -   -  13 20 mph 1014.5mb 73f 65f
9:00am  -   -   -  13 20 mph 1014.3mb 73f 65f
8:50am 5ft 8s 6s 11 13 mph 1014.2mb 73f 65f
8:40am 5ft  -  6s 9 13 mph 1014.1mb 73f 65f
8:30am  -   -   -  11 16 mph 1014mb 73f 65f
8:20am  -   -   -  13 18 mph 1013.9mb 73f 66f
8:10am  -   -   -  16 20 mph 1013.9mb 73f 66f
8:00am  -   -   -  16 20 mph - 73f 66f
7:50am 4.5ft 7s 6s 11 16 mph 1013.7mb 73f 66f
7:40am 4.5ft  -  6s 9 13 mph 1013.7mb - 66f
7:30am  -   -   -  9 11 mph 1013.5mb 73f 66f
7:20am  -   -   -  7 11 mph 1013.3mb 73f 66f
7:10am  -   -   -  9 13 mph 1013.2mb 73f 65f
7:00am  -   -   -  11 16 mph 1013.3mb 73f 65f
6:50am 4.5ft 7s 6s 11 13 mph 1013mb 73f 65f
6:40am  -   -   -  9 13 mph 1012.9mb 73f 66f
6:30am  -   -   -  9 13 mph 1012.8mb 73f 66f
6:20am  -   -   -  9 11 mph 1012.7mb 73f 66f
6:10am  -   -   -  9 13 mph 1012.5mb 73f 66f
6:00am  -   -   -  9 13 mph 1012.5mb 73f 66f
5:50am 4.5ft 7s 6s 9 13 mph 1012.6mb - 66f
5:40am 4.5ft  -  6s 9 13 mph 1012.6mb 73f 67f
5:30am  -   -   -  7 11 mph 1012.7mb 72f 67f
5:20am  -   -   -  7 9 mph 1012.7mb 72f 67f
5:10am  -   -   -  7 11 mph 1012.6mb 72f 67f
5:00am  -   -   -  9 11 mph 1012.4mb 72f 66f
4:50am 5ft 7s 6s 9 11 mph 1012.2mb 72f 67f
4:40am  -   -   -  9 11 mph 1012.3mb 72f 66f
4:30am  -   -   -  9 13 mph 1012.2mb 72f 66f
4:20am  -   -   -  11 16 mph 1012.1mb 72f 66f
4:10am  -   -   -  9 13 mph 1012.1mb 72f 66f
4:00am  -   -   -  11 13 mph 1012.3mb 72f 66f
3:50am 4.5ft 7s 6s 11 13 mph 1012.2mb 72f 66f
3:40am 4.5ft  -  6s 11 13 mph 1012.4mb 72f 66f
3:30am  -   -   -  13 16 mph 1012.6mb 72f 66f
3:20am  -   -   -  13 18 mph 1012.3mb 72f 66f
3:10am  -   -   -  11 13 mph 1012.6mb 72f 66f
3:00am  -   -   -  9 13 mph 1012.7mb 72f 65f
12:10am  -   -   -  4 7 mph 1014.1mb 72f 65f
12:00am  -   -   -  2 4 mph 1014mb 72f 66f
Tue 11/21 11:30pm  -   -   -  9 18 mph 1014.9mb 72f 67f
11:20pm  -   -   -  11 16 mph 1014.9mb 72f 67f
11:10pm  -   -   -  9 16 mph 1014.9mb 72f 69f
11:00pm  -   -   -  9 22 mph 1014.8mb 72f 69f
10:50pm 4.5ft 7s 5s 11 20 mph 1014.6mb 72f 70f
10:40pm  -   -   -  11 13 mph 1014.6mb 72f 71f
10:30pm  -   -   -  11 13 mph 1015mb 72f 72f
10:20pm  -   -   -  13 18 mph 1015mb 72f 73f
10:10pm  -   -   -  13 18 mph 1015.3mb 72f 73f
10:00pm  -   -   -  13 18 mph 1015.4mb 72f 73f
9:50pm 4.5ft 6s 5s 13 18 mph 1015.4mb 72f 74f
9:40pm 4.5ft  -  5s 16 20 mph 1015.6mb 72f 74f
9:30pm  -   -   -  18 20 mph 1015.7mb 72f 74f
9:20pm  -   -   -  18 25 mph 1015.8mb 72f 74f
9:10pm  -   -   -  18 22 mph 1015.7mb 72f 74f
9:00pm  -   -   -  18 22 mph 1015.8mb 72f 74f
8:50pm 4.5ft 6s 5s 18 22 mph 1016mb 72f 73f
8:40pm 4.5ft  -  5s 18 22 mph 1016.1mb 72f 73f
8:30pm  -   -   -  18 22 mph 1016.2mb 72f 73f
8:20pm  -   -   -  20 22 mph 1016.3mb 72f 73f
8:10pm  -   -   -  18 22 mph 1016.3mb - 74f
8:00pm  -   -   -  18 25 mph - 72f 73f
7:50pm 4.5ft 7s 5s 18 22 mph 1016.5mb 72f 73f
7:40pm 4.5ft  -  5s 18 22 mph 1016.8mb 72f 73f
7:30pm  -   -   -  18 25 mph 1017mb 71f 73f
7:20pm  -   -   -  18 22 mph 1017.1mb 71f 73f
7:10pm  -   -   -  18 22 mph 1017.3mb 71f 73f
7:00pm  -   -   -  18 22 mph 1017.5mb 71f 73f
6:50pm 4.5ft 6s 5s 18 22 mph 1017.4mb - 73f
6:40pm 4.5ft  -  5s 18 22 mph 1017.6mb 71f 73f
6:30pm  -   -   -  20 25 mph 1017.7mb 71f 73f
6:20pm  -   -   -  18 22 mph 1017.7mb 71f 73f
6:10pm  -   -   -  20 22 mph 1017.7mb 71f 73f
6:00pm  -   -   -  18 22 mph 1017.9mb 71f 73f
5:50pm 4.5ft 6s 4s 18 22 mph 1017.7mb 71f 73f
5:40pm  -   -   -  18 25 mph 1017.7mb 71f 73f
5:30pm  -   -   -  18 22 mph 1017.8mb 71f 73f
5:20pm  -   -   -  18 25 mph 1018mb 71f 73f
5:10pm  -   -   -  18 22 mph 1018.1mb 71f 73f
5:00pm  -   -   -  18 22 mph 1018.2mb 71f 72f
4:50pm 4.5ft 6s 4s 18 22 mph 1018.3mb 71f 72f
4:40pm 4.5ft  -  4s 16 20 mph 1018.3mb 71f 72f
4:30pm  -   -   -  16 20 mph 1018mb 71f 72f
4:20pm  -   -   -  18 22 mph 1018.2mb 71f 72f
4:10pm  -   -   -  18 22 mph 1018.3mb 71f 72f
4:00pm  -   -   -  20 25 mph 1018.5mb 71f 72f
3:50pm 4ft 6s 4s 20 25 mph 1018.5mb 71f 72f
3:40pm 4ft  -  4s 18 22 mph 1018.5mb 71f 72f
3:30pm  -   -   -  16 18 mph 1018.5mb 71f 72f
3:20pm  -   -   -  16 18 mph 1018.5mb 71f 72f
3:10pm  -   -   -  18 20 mph 1018.5mb 71f 72f
3:00pm  -   -   -  16 20 mph 1018.5mb 71f 72f
2:50pm 4ft 6s 4s 16 20 mph 1018.3mb 71f 72f
2:40pm 4ft  -  4s 16 20 mph 1018.2mb 71f 72f
2:30pm  -   -   -  16 20 mph 1018.4mb 71f 72f
2:20pm  -   -   -  16 20 mph 1018.3mb 71f 72f
2:10pm  -   -   -  16 20 mph 1018.6mb 71f 72f
2:00pm  -   -   -  18 20 mph 1018.7mb 71f 72f
1:50pm 3.5ft 5s 4s 16 20 mph 1018.8mb - 72f
1:40pm 3.5ft  -  4s 16 22 mph 1018.9mb 71f 72f
1:30pm  -   -   -  18 22 mph 1018.9mb 71f 72f
1:20pm  -   -   -  16 20 mph 1019.1mb 71f 72f
1:10pm  -   -   -  16 22 mph 1019mb 71f 72f
1:00pm  -   -   -  16 22 mph 1019.1mb 71f 71f
12:50pm 3.5ft 5s 4s 16 22 mph 1019.3mb 71f 71f
12:40pm 3.5ft  -  4s 16 20 mph 1019.6mb 71f 71f
12:30pm  -   -   -  16 20 mph 1019.8mb 71f 72f
12:20pm  -   -   -  16 20 mph 1019.9mb 71f 71f
12:10pm  -   -   -  16 20 mph 1020.4mb 71f 72f
12:00pm  -   -   -  18 20 mph 1020.7mb - 72f
11:50am 3ft 5s 4s 18 20 mph 1020.8mb 71f 71f
11:40am  -   -   -  18 20 mph 1021mb 71f 71f
11:30am  -   -   -  16 22 mph 1021.1mb 71f 72f
11:20am  -   -   -  16 20 mph 1021.3mb 71f 72f
11:10am  -   -   -  13 18 mph 1021.5mb - 71f
11:00am  -   -   -  16 20 mph 1021.8mb 71f 71f
10:50am 2.5ft 9s 4s 16 20 mph 1021.9mb 71f 71f
10:40am 2.5ft  -  4s 16 20 mph 1022mb 71f 71f
10:30am  -   -   -  13 18 mph 1022.1mb 71f 71f
10:20am  -   -   -  13 18 mph 1022.2mb 71f 71f
10:10am  -   -   -  13 18 mph 1022.2mb 71f 71f
10:00am  -   -   -  13 18 mph 1022.4mb 71f 71f
9:50am 2.5ft 8s 4s 13 18 mph 1022.5mb 71f 71f
9:40am 2.5ft  -  4s 13 18 mph 1022.5mb 71f 70f
9:30am  -   -   -  13 16 mph 1022.4mb 71f 70f
9:20am  -   -   -  13 18 mph 1022.5mb 71f 70f
9:10am  -   -   -  11 16 mph 1022.5mb 71f 70f
9:00am  -   -   -  13 18 mph 1022.4mb 71f 70f
8:50am 2.5ft 8s 5s 13 16 mph 1022.4mb 71f 70f
8:40am  -   -   -  11 16 mph 1022.6mb 71f 70f
8:30am  -   -   -  9 16 mph 1022.6mb 71f 69f
8:20am  -   -   -  9 11 mph 1022.6mb 71f 69f
8:10am  -   -   -  7 9 mph 1022.6mb 71f 69f
8:00am  -   -   -  9 11 mph 1022.7mb - 69f
7:50am 2.5ft 7s 4s 11 13 mph 1022.8mb 71f 69f
7:40am  -   -   -  11 13 mph 1022.8mb 71f 69f
7:30am  -   -   -  11 13 mph 1022.8mb 71f 69f
7:20am  -   -   -  11 16 mph 1022.8mb 71f 69f
7:10am  -   -   -  11 16 mph 1022.6mb 71f 69f
7:00am  -   -   -  9 13 mph 1022.6mb 71f 69f
6:50am 2.5ft 9s 4s 7 11 mph 1022.8mb 71f 68f
6:40am 2.5ft  -  4s 9 13 mph 1022.6mb 71f 68f
6:30am  -   -   -  9 11 mph 1022.7mb 71f 68f
6:20am  -   -   -  9 13 mph 1022.6mb 71f 68f
6:10am  -   -   -  9 11 mph 1022.6mb 70f 68f
6:00am  -   -   -  11 16 mph 1022.6mb 70f 68f
5:50am 2.5ft 8s 4s 7 11 mph 1022.6mb 70f 68f
5:40am 2.5ft  -  4s 7 11 mph 1022.5mb 70f 68f
5:30am  -   -   -  9 13 mph 1022.4mb 70f 68f
5:20am  -   -   -  11 13 mph 1022.4mb 70f 68f
5:10am  -   -   -  11 16 mph 1022.3mb 69f 67f
5:00am  -   -   -  9 13 mph 1022.3mb 69f 67f
4:50am 2ft 7s 4s 11 13 mph 1022.3mb 69f 67f
4:40am  -   -   -  11 16 mph 1022.2mb 69f 67f
4:30am  -   -   -  11 16 mph 1022mb 69f 67f
4:20am  -   -   -  11 16 mph 1022.1mb 69f 67f
4:10am  -   -   -  11 16 mph 1022.1mb 69f 67f
4:00am  -   -   -  11 16 mph 1022.2mb 69f 67f
3:50am 2.5ft 9s 5s 7 11 mph 1022.2mb 69f 67f
3:40am 2.5ft  -  5s 7 11 mph 1022.3mb 69f 67f
3:30am  -   -   -  11 16 mph 1022.3mb 69f 67f
3:20am  -   -   -  11 16 mph 1022.3mb 69f 67f
3:10am  -   -   -  7 9 mph 1022.5mb 69f 67f
3:00am  -   -   -  4 9 mph 1022.5mb 69f 64f
2:50am 2ft 8s 5s 7 9 mph 1022.6mb 69f 64f
2:40am  -   -   -  4 7 mph 1022.8mb 69f 64f
2:30am  -   -   -  4 7 mph 1022.9mb - 64f
2:20am  -   -   -  4 7 mph 1023mb 69f 64f
2:10am  -   -   -  4 7 mph 1023mb 69f 64f
2:00am  -   -   -  2 4 mph 1023mb 69f 64f
1:50am 2ft 8s 5s 2 2 mph 1023.1mb 69f 64f
1:40am  -   -   -  2 4 mph 1023.3mb 69f 64f
1:30am  -   -   -  2 4 mph 1023.3mb 69f 64f
1:20am  -   -   -  4 7 mph 1023.4mb 69f 64f
1:10am  -   -   -  4 7 mph 1023.5mb 69f 64f
1:00am  -   -   -  4 9 mph 1023.5mb - 64f
12:50am 2ft 10s 5s 4 9 mph 1023.5mb 69f 64f
12:40am  -   -   -  7 11 mph 1023.7mb 69f 63f
12:30am  -   -   -  4 7 mph 1023.8mb 69f 63f
12:20am  -   -   -  7 9 mph 1024mb 69f 63f
12:10am  -   -   -  7 9 mph 1023.9mb 69f 63f
12:00am  -   -   -  4 7 mph 1024mb - 63f
Mon 11/20 11:50pm 2ft 8s 5s 7 11 mph 1024mb 69f 63f
11:40pm  -   -   -  7 9 mph 1024.2mb 69f 63f
11:30pm  -   -   -  9 13 mph - 69f 63f
11:20pm  -   -   -  9 16 mph 1024mb - 63f
11:10pm  -   -   -  9 13 mph 1024.1mb 69f 62f
11:00pm  -   -   -  9 13 mph 1024.1mb 69f 62f
10:50pm 2ft 8s 5s 9 13 mph 1024mb 70f 62f
10:40pm  -   -   -  11 13 mph 1024mb 69f 62f
10:30pm  -   -   -  9 13 mph 1024mb 69f 62f
10:20pm  -   -   -  7 13 mph 1024.2mb 70f 62f
10:10pm  -   -   -  9 13 mph 1024.4mb 70f 62f
10:00pm  -   -   -  9 13 mph 1024.3mb 70f 61f
9:50pm 2ft 8s 5s 7 13 mph 1024.3mb 70f 61f
9:40pm  -   -   -  9 13 mph 1024.2mb 70f 61f
9:30pm  -   -   -  7 11 mph 1024.2mb 70f 61f
9:20pm  -   -   -  7 11 mph 1024.2mb 70f 61f
9:10pm  -   -   -  7 13 mph 1024.2mb 70f 60f
9:00pm  -   -   -  9 13 mph 1024.2mb 70f 60f
8:50pm 2ft 8s 5s 9 11 mph 1024.2mb 70f 60f
8:40pm 2ft  -  5s 9 13 mph 1024mb 70f 60f
8:30pm  -   -   -  9 11 mph 1024.1mb 70f 60f
8:20pm  -   -   -  9 11 mph 1024.1mb 70f 60f
8:10pm  -   -   -  9 13 mph 1024.1mb 70f 59f
8:00pm  -   -   -  9 11 mph 1024.2mb 70f 59f
7:50pm 2ft 8s 5s 9 13 mph 1024.2mb 70f 59f
7:40pm  -   -   -  9 13 mph 1024mb 70f 59f
7:30pm  -   -   -  9 13 mph 1024mb 70f 59f
7:20pm  -   -   -  7 11 mph 1024mb 70f 58f
7:10pm  -   -   -  9 13 mph 1023.9mb 69f 58f
7:00pm  -   -   -  9 13 mph 1023.7mb 69f 58f
6:50pm 2.5ft 8s 5s 9 13 mph 1023.6mb 70f 58f
6:40pm 2.5ft  -  5s 9 13 mph 1023.7mb 70f 58f
6:30pm  -   -   -  9 13 mph 1023.7mb 70f 57f
6:20pm  -   -   -  11 13 mph 1023.8mb 70f 57f
6:10pm  -   -   -  9 13 mph 1023.7mb 69f 57f
6:00pm  -   -   -  9 13 mph 1023.8mb 69f 57f
5:50pm 2.5ft 8s 5s 9 13 mph 1023.8mb 69f 57f
5:40pm 2.5ft  -  5s 9 13 mph 1023.7mb - 57f
5:30pm  -   -   -  9 13 mph 1023.7mb 69f 57f
5:20pm  -   -   -  7 11 mph 1023.8mb 69f 56f
5:10pm  -   -   -  7 11 mph 1023.8mb 69f 56f
5:00pm  -   -   -  7 11 mph 1023.7mb 69f 56f
4:50pm 2.5ft 5s 4s 9 11 mph 1023.9mb 69f 56f
4:40pm 2.5ft  -  4s 9 11 mph 1023.9mb 69f 56f
4:30pm  -   -   -  9 11 mph 1024mb 69f 56f
4:20pm  -   -   -  9 11 mph 1023.9mb 69f 56f
4:10pm  -   -   -  9 13 mph 1024mb 69f 56f
4:00pm  -   -   -  11 16 mph 1023.9mb 69f 56f
3:50pm 2.5ft 5s 4s 11 13 mph 1023.8mb 69f 56f
3:40pm  -   -   -  11 13 mph 1023.9mb 69f 56f
3:30pm  -   -   -  9 16 mph 1023.8mb 69f 56f
3:20pm  -   -   -  11 16 mph 1023.7mb 69f 55f
3:10pm  -   -   -  11 16 mph 1023.6mb 69f 56f
3:00pm  -   -   -  11 16 mph 1023.6mb 69f 55f
2:50pm 3ft 5s 4s 13 20 mph 1023.5mb 69f 55f
2:40pm 3ft  -  4s 13 18 mph 1023.5mb 69f 55f
2:30pm  -   -   -  13 20 mph 1023.4mb 69f 55f
2:20pm  -   -   -  16 18 mph 1023.3mb 69f 55f
2:10pm  -   -   -  16 20 mph 1023.3mb 69f 55f
2:00pm  -   -   -  16 18 mph 1023.3mb 69f 55f
1:50pm 3.5ft 5s 4s 16 20 mph 1023.4mb 69f 55f
1:40pm 3.5ft  -  4s 16 20 mph 1023.4mb 69f 55f
1:30pm  -   -   -  16 20 mph 1023.4mb 69f 54f
1:20pm  -   -   -  16 18 mph 1023.4mb 69f 54f
1:10pm  -   -   -  16 20 mph 1023.5mb 69f 54f
1:00pm  -   -   -  16 20 mph 1023.5mb 69f 54f
12:50pm 3.5ft 5s 4s 16 20 mph 1023.6mb 69f 54f
12:40pm  -   -   -  16 20 mph 1023.7mb 69f 54f
12:30pm  -   -   -  16 20 mph 1023.8mb 69f 54f
12:20pm  -   -   -  16 20 mph 1023.8mb 69f 54f
12:10pm  -   -   -  16 22 mph 1023.8mb 69f 54f
12:00pm  -   -   -  16 20 mph 1023.9mb 69f 54f
11:50am 3.5ft 5s 4s 16 22 mph 1024mb 69f 54f
11:40am 3.5ft  -  4s 18 22 mph 1024.2mb 70f 54f
11:30am  -   -   -  16 22 mph 1024.2mb 70f 53f
11:20am  -   -   -  18 22 mph 1024.3mb 70f 53f
11:10am  -   -   -  18 22 mph 1024.4mb - 54f
11:00am  -   -   -  18 22 mph 1024.4mb 70f 54f
10:50am 3.5ft 5s 4s 18 25 mph 1024.5mb 70f 53f
10:40am 3.5ft  -  4s 18 22 mph 1024.5mb 70f 53f
10:30am  -   -   -  18 22 mph 1024.4mb 70f 54f
10:20am  -   -   -  16 20 mph 1024.4mb 70f 54f
10:10am  -   -   -  18 22 mph 1024.3mb 70f 54f
10:00am  -   -   -  16 20 mph 1024.3mb 70f 53f
9:50am 3.5ft 6s 4s 16 22 mph 1024.4mb 70f 53f
9:40am 3.5ft  -  4s 18 25 mph 1024.4mb 70f 53f
9:30am  -   -   -  16 22 mph 1024.3mb 70f 53f
9:20am  -   -   -  18 22 mph 1024mb 70f 53f
9:10am  -   -   -  18 22 mph 1024mb 70f 53f
9:00am  -   -   -  18 25 mph 1024mb 70f 53f
8:50am 3.5ft 6s 4s 18 25 mph 1023.8mb 70f 53f
8:40am 3.5ft  -  4s 18 25 mph 1023.7mb 70f 53f
8:30am  -   -   -  18 25 mph 1023.5mb 70f 53f
8:20am  -   -   -  18 22 mph 1023.4mb 70f 53f
8:10am  -   -   -  18 25 mph 1023.2mb 70f 53f
8:00am  -   -   -  18 22 mph 1023.1mb 70f 53f
7:50am 4.5ft 6s 4s 18 22 mph 1023mb 70f 53f
7:40am  -   -   -  18 22 mph 1022.8mb 70f 53f
7:30am  -   -   -  18 25 mph 1022.7mb 70f 53f
7:20am  -   -   -  18 22 mph 1022.5mb 70f 53f
7:10am  -   -   -  18 22 mph 1022.3mb 70f 53f
7:00am  -   -   -  18 25 mph 1022.2mb 70f 53f
6:50am 4.5ft 6s 5s 18 22 mph 1021.9mb 70f 53f
6:40am 4.5ft  -  5s 18 25 mph 1021.8mb 70f 53f
6:30am  -   -   -  18 22 mph 1021.7mb 70f 53f
6:20am  -   -   -  18 25 mph 1021.6mb 70f 53f
6:10am  -   -   -  20 25 mph 1021.6mb 70f 53f
6:00am  -   -   -  20 25 mph 1021.5mb 70f 53f
5:50am 4.5ft 5s 4s 20 27 mph 1021.4mb 70f 53f
5:40am  -   -   -  20 25 mph 1021.1mb 70f 53f
5:30am  -   -   -  20 25 mph 1021mb 70f 53f
5:20am  -   -   -  20 27 mph 1020.9mb 70f 53f
5:10am  -   -   -  20 29 mph 1020.8mb 70f 53f
5:00am  -   -   -  20 27 mph 1020.4mb 70f 53f
4:50am 4ft 5s 4s 20 27 mph 1020.4mb 70f 53f
4:40am  -   -   -  20 27 mph 1020.4mb 70f 53f
4:30am  -   -   -  20 27 mph 1020.3mb 70f 53f
4:20am  -   -   -  20 27 mph 1020.2mb 70f 53f
4:10am  -   -   -  18 25 mph 1020.1mb 70f 53f
4:00am  -   -   -  20 27 mph 1019.9mb 70f 53f
3:50am 4.5ft 5s 4s 20 27 mph 1019.9mb 70f 53f
3:40am 4.5ft  -  4s 18 25 mph 1019.8mb 70f 53f
3:30am  -   -   -  18 25 mph 1019.7mb 70f 53f
3:20am  -   -   -  18 25 mph 1019.7mb 70f 53f
3:10am  -   -   -  18 25 mph 1019.6mb 70f 53f
3:00am  -   -   -  20 25 mph 1019.6mb 70f 53f
2:50am 4.5ft 6s 4s 20 27 mph 1019.5mb 69f 53f
2:40am 4.5ft  -  4s 20 27 mph 1019.4mb 69f 54f
2:30am  -   -   -  20 25 mph 1019.2mb 69f 54f
2:20am  -   -   -  20 27 mph 1019.1mb 69f 54f
2:10am  -   -   -  20 27 mph 1019.1mb 69f 54f
2:00am  -   -   -  22 27 mph 1018.9mb 69f 54f
1:50am 4.5ft 5s 4s 22 27 mph 1018.8mb 69f 54f
1:40am 4.5ft  -  4s 22 29 mph 1018.8mb 69f 54f
1:30am  -   -   -  25 29 mph 1018.8mb 69f 55f
1:20am  -   -   -  25 29 mph 1018.7mb 69f 55f
1:10am  -   -   -  22 29 mph 1018.6mb 69f 56f
1:00am  -   -   -  22 27 mph 1018.5mb 69f 56f
12:50am 5ft 5s 4s 22 27 mph 1018.4mb 69f 57f
12:40am 5ft  -  4s 22 27 mph 1018.2mb 69f 57f
12:30am  -   -   -  22 27 mph 1018.1mb 69f 57f
12:20am  -   -   -  20 29 mph 1018.1mb 69f 57f
12:10am  -   -   -  20 25 mph 1018mb 69f 57f
12:00am  -   -   -  22 27 mph 1017.9mb 70f 57f
Sun 11/19 11:50pm 4.5ft 5s 4s 22 29 mph 1017.8mb 70f 57f
11:40pm  -   -   -  22 29 mph 1017.6mb 70f 58f
11:30pm  -   -   -  22 29 mph 1017.6mb 70f 58f
11:20pm  -   -   -  22 27 mph 1017.3mb 70f 58f
11:10pm  -   -   -  20 27 mph 1017.1mb 70f 59f
11:00pm  -   -   -  20 27 mph 1017mb 70f 59f
10:50pm 4.5ft 5s 4s 20 27 mph 1016.8mb 70f 59f
10:40pm  -   -   -  22 27 mph 1016.6mb 70f 60f
10:30pm  -   -   -  22 29 mph 1016.4mb 70f 60f
10:20pm  -   -   -  22 27 mph 1016.2mb 71f 60f
10:10pm  -   -   -  22 27 mph 1016.1mb 71f 60f
10:00pm  -   -   -  22 29 mph 1015.9mb 71f 61f
9:50pm 5ft 5s 4s 22 29 mph 1015.8mb 71f 61f
9:40pm 5ft  -  4s 22 29 mph 1015.7mb 71f 61f
9:30pm  -   -   -  22 27 mph 1015.5mb 71f 61f
9:20pm  -   -   -  22 29 mph 1015.4mb 71f 61f
9:10pm  -   -   -  25 31 mph 1015.2mb 71f 61f
9:00pm  -   -   -  22 29 mph 1015mb 71f 62f
8:50pm 5ft 5s 5s 22 29 mph 1014.9mb 71f 62f
8:40pm  -   -   -  22 27 mph 1014.7mb 71f 62f
8:30pm  -   -   -  22 27 mph 1014.5mb 71f 62f
8:20pm  -   -   -  22 29 mph 1014.4mb 71f 62f
8:10pm  -   -   -  22 27 mph 1014.1mb 71f 62f
8:00pm  -   -   -  22 27 mph 1014mb 71f 62f
7:50pm 5ft 5s 5s 22 25 mph 1013.7mb 71f 62f
7:40pm 5ft  -  5s 22 27 mph 1013.6mb 71f 63f
7:30pm  -   -   -  25 29 mph 1013.4mb 71f 63f
7:20pm  -   -   -  25 29 mph 1013.3mb 71f 63f
7:10pm  -   -   -  22 29 mph 1013.1mb 71f 63f
7:00pm  -   -   -  25 31 mph 1012.9mb 71f 63f
6:50pm 5ft 5s 5s 25 31 mph 1012.7mb 71f 63f
6:40pm  -   -   -  25 29 mph 1012.5mb 71f 63f
6:30pm  -   -   -  22 29 mph 1012.4mb 71f 63f
6:20pm  -   -   -  22 29 mph 1012.1mb 71f 64f
6:10pm  -   -   -  22 27 mph 1011.9mb 71f 64f
6:00pm  -   -   -  22 27 mph 1011.6mb - 64f
5:50pm 5.5ft 7s 5s 22 29 mph 1011.4mb 71f 64f
5:40pm 5.5ft  -  5s 20 27 mph 1011.1mb 71f 64f
5:30pm  -   -   -  20 25 mph 1010.9mb 71f 64f
5:20pm  -   -   -  22 27 mph 1010.7mb 71f 64f
5:10pm  -   -   -  22 27 mph 1010.6mb 71f 64f
5:00pm  -   -   -  22 31 mph 1010.3mb 71f 64f
4:50pm 5.5ft 8s 5s 22 29 mph 1010.1mb 71f 64f
4:40pm  -   -   -  20 27 mph 1009.8mb 71f 64f
4:30pm  -   -   -  18 25 mph 1009.7mb 71f 64f
4:20pm  -   -   -  18 22 mph 1009.6mb 71f 64f
4:10pm  -   -   -  18 27 mph 1009.5mb 71f 64f
4:00pm  -   -   -  18 22 mph 1009.4mb 71f 64f
3:50pm 6.5ft 8s 5s 18 25 mph 1009.2mb 71f 64f
3:40pm 6.5ft  -  5s 18 22 mph 1009.1mb 71f 64f
3:30pm  -   -   -  18 22 mph 1009mb 71f 63f
3:20pm  -   -   -  20 25 mph 1008.8mb 71f 63f
3:10pm  -   -   -  20 25 mph 1008.7mb 71f 64f
3:00pm  -   -   -  20 25 mph 1008.5mb - 63f
2:50pm 6ft 8s 5s 20 25 mph 1008.4mb 71f 63f
2:40pm 6ft  -  5s 20 27 mph 1008.2mb 71f 63f
2:30pm  -   -   -  20 25 mph 1008.1mb 71f 64f
2:20pm  -   -   -  20 27 mph 1008mb 71f 63f
2:10pm  -   -   -  18 25 mph 1007.9mb 71f 64f
2:00pm  -   -   -  18 25 mph 1007.8mb 71f 63f
1:50pm 6.5ft 8s 6s 18 25 mph 1007.9mb 71f 63f
1:40pm 6.5ft  -  6s 18 22 mph 1007.9mb 71f 63f
1:30pm  -   -   -  18 22 mph 1007.9mb 71f 63f
1:20pm  -   -   -  18 25 mph 1008mb 71f 63f
1:10pm  -   -   -  20 22 mph 1008mb 71f 64f
1:00pm  -   -   -  18 22 mph 1008mb 71f 64f
12:50pm 6.5ft 8s 5s 18 22 mph 1007.8mb 71f 64f
12:40pm 6.5ft  -  5s 18 22 mph 1007.8mb 71f 64f
12:30pm  -   -   -  20 25 mph 1007.8mb 71f 64f
12:20pm  -   -   -  20 25 mph 1007.9mb 71f 64f
12:10pm  -   -   -  22 29 mph 1007.9mb 71f 64f
12:00pm  -   -   -  20 27 mph 1008mb 71f 64f
11:50am 8ft 8s 6s 22 27 mph 1008mb 71f 64f
11:40am 8ft  -  6s 22 27 mph 1008.1mb 71f 66f
11:30am  -   -   -  22 27 mph 1007.9mb 71f 66f
11:20am  -   -   -  22 27 mph 1008.1mb 71f 66f
11:10am  -   -   -  25 27 mph 1008.1mb 71f 66f
11:00am  -   -   -  22 29 mph 1008.1mb 71f 66f
10:50am 7.5ft 8s 5s 25 29 mph 1008.1mb 71f 66f
10:40am 7.5ft  -  5s 25 31 mph 1008.1mb 71f 67f
10:30am  -   -   -  25 31 mph 1008.1mb 71f 67f
10:20am  -   -   -  25 31 mph 1007.9mb - 67f
10:10am  -   -   -  25 31 mph 1008mb 71f 67f
10:00am  -   -   -  25 31 mph 1008mb 71f 67f
9:50am 8ft 8s 6s 27 34 mph 1007.9mb 71f 67f
9:40am  -   -   -  29 36 mph 1007.8mb 71f 68f
9:30am  -   -   -  27 34 mph 1007.6mb 71f 68f
9:20am  -   -   -  29 36 mph 1007.6mb 71f 68f
9:10am  -   -   -  29 36 mph 1007.5mb 71f 69f
9:00am  -   -   -  31 40 mph 1007.4mb 71f 69f
8:50am 9.5ft 8s 6s 27 31 mph 1007.3mb 71f 69f
8:40am 9.5ft  -  6s 25 29 mph 1007mb 71f 68f
8:30am  -   -   -  25 29 mph 1006.9mb 72f 68f
8:20am  -   -   -  25 31 mph 1006.7mb 72f 68f
8:10am  -   -   -  27 31 mph 1006.6mb - 68f
8:00am  -   -   -  29 36 mph 1006.6mb - 69f
7:50am 10ft 8s 6s 31 40 mph 1006.5mb 72f 69f
7:40am 10ft  -  6s 31 40 mph 1006.6mb 72f 69f
7:30am  -   -   -  31 40 mph 1006.6mb 72f 69f
7:20am  -   -   -  34 45 mph 1006.6mb 72f 68f
7:10am  -   -   -  29 38 mph 1006.4mb 72f 69f
7:00am  -   -   -  29 43 mph 1006.4mb 72f 71f
6:50am 11.5ft 8s 6s 31 43 mph 1006.1mb 72f 73f
6:40am 11.5ft  -  6s 29 38 mph 1006mb 72f 73f
6:30am  -   -   -  34 40 mph 1005.7mb 72f 74f
6:20am  -   -   -  34 43 mph 1005.5mb 72f 74f
6:10am  -   -   -  34 43 mph 1005.4mb 72f 74f
6:00am  -   -   -  29 38 mph 1005.5mb 72f 74f
5:50am 11ft 8s 6s 34 43 mph 1005.4mb 72f 74f
5:40am 11ft  -  6s 31 40 mph 1005.3mb 72f 74f
5:30am  -   -   -  31 40 mph 1005.4mb 72f 74f
5:20am  -   -   -  31 40 mph 1005.5mb 72f 74f
5:10am  -   -   -  34 40 mph 1005.3mb 72f 73f
5:00am  -   -   -  34 43 mph 1005.3mb - 73f
4:50am 10.5ft 8s 6s 31 43 mph 1005.6mb 72f 73f
4:40am 10.5ft  -  6s 34 43 mph 1005.7mb 72f 74f
4:30am  -   -   -  34 40 mph 1005.4mb - 74f
4:20am  -   -   -  31 40 mph 1005.3mb 72f 73f
4:10am  -   -   -  31 40 mph 1005.1mb 72f 73f
4:00am  -   -   -  31 38 mph 1005.4mb 72f 73f
3:50am 10.5ft 7s 6s 31 40 mph 1005.9mb 72f 73f
3:40am  -   -   -  31 40 mph 1005.8mb 72f 73f
3:30am  -   -   -  31 40 mph 1005.8mb - 73f
3:20am  -   -   -  31 38 mph 1005.9mb 72f 73f
3:10am  -   -   -  31 38 mph 1006mb 72f 73f
3:00am  -   -   -  29 40 mph 1006.2mb 71f 73f
2:50am 8.5ft 7s 5s 31 38 mph 1006.4mb 71f 73f
2:40am  -   -   -  31 38 mph 1006.5mb 71f 73f
2:30am  -   -   -  29 40 mph 1006.6mb 71f 73f
2:20am  -   -   -  31 40 mph 1006.6mb 71f 73f
2:10am  -   -   -  31 40 mph 1006.7mb 71f 73f
2:00am  -   -   -  31 40 mph 1006.8mb 71f 73f
1:50am 8ft 6s 6s 31 38 mph 1007.2mb 71f 73f
1:40am 8ft  -  6s 29 38 mph 1007.3mb 71f 73f
1:30am  -   -   -  29 38 mph 1007.4mb 71f 73f
1:20am  -   -   -  29 38 mph 1007.5mb 71f 73f
1:10am  -   -   -  29 38 mph 1007.6mb 71f 73f
1:00am  -   -   -  29 38 mph 1007.8mb 71f 73f
12:50am 7ft 7s 5s 27 36 mph 1008mb 71f 73f
12:40am  -   -   -  27 34 mph 1008.3mb 71f 73f
12:30am  -   -   -  27 34 mph 1008.3mb 71f 73f
12:20am  -   -   -  27 34 mph 1008.3mb 71f 73f
12:10am  -   -   -  27 38 mph 1008.5mb 71f 73f
12:00am  -   -   -  27 31 mph 1008.7mb 71f 73f
Sat 11/18 11:50pm 7.5ft 7s 5s 27 34 mph 1008.8mb 71f 73f
11:40pm  -   -   -  29 36 mph 1008.8mb 71f 73f
11:30pm  -   -   -  31 38 mph 1008.9mb 71f 73f
11:20pm  -   -   -  29 36 mph 1008.9mb - 73f
11:10pm  -   -   -  31 38 mph 1009mb 71f 73f
11:00pm  -   -   -  29 38 mph 1009mb 71f 73f
10:50pm 7ft 6s 5s 29 38 mph 1009.1mb 71f 73f
10:40pm  -   -   -  29 36 mph 1009.3mb 71f 73f
10:30pm  -   -   -  27 34 mph 1009.3mb 72f 73f
10:20pm  -   -   -  29 38 mph 1009.3mb 72f 73f
10:10pm  -   -   -  29 36 mph 1009.4mb 72f 73f
10:00pm  -   -   -  25 34 mph 1009.6mb 72f 73f
9:50pm 6ft 6s 5s 25 31 mph 1009.8mb 72f 73f
9:40pm  -   -   -  22 29 mph 1010mb 72f 72f
9:30pm  -   -   -  22 27 mph 1010.1mb 72f 72f
9:20pm  -   -   -  22 27 mph 1010.1mb 71f 72f
9:10pm  -   -   -  22 27 mph 1010.2mb 71f 72f
9:00pm  -   -   -  22 27 mph 1010.1mb 71f 71f
8:50pm 6.5ft 6s 5s 20 25 mph 1010.2mb 71f 71f
8:40pm 6.5ft  -  5s 20 25 mph 1010.4mb 72f 71f
8:30pm  -   -   -  18 22 mph 1010.4mb 72f 71f